Time;durP1;ratioP1;P1;durP2;ratioP2;P2;SDS_P1;SDS_P2;PMS_P1;PMS_P2;Temp;Humidity;BMP_temperature;BMP_pressure;BME280_temperature;BME280_humidity;BME280_pressure;Samples;Min_cycle;Max_cycle;Signal;HPM_P1;HPM_P2
2022/07/29 00:00:57;;;;;;;3.10;0.43;;;22.00;77.00;;;;;;4948180;28;20024;-74
2022/07/29 00:03:25;;;;;;;4.15;0.40;;;22.10;77.50;;;;;;4944170;28;21039;-73
2022/07/29 00:05:52;;;;;;;1.02;0.73;;;22.30;76.90;;;;;;4938270;28;20058;-72
2022/07/29 00:08:20;;;;;;;0.63;0.38;;;22.40;77.00;;;;;;4937763;28;20035;-72
2022/07/29 00:10:48;;;;;;;2.03;0.50;;;22.10;75.80;;;;;;4945669;28;20027;-73
2022/07/29 00:13:15;;;;;;;2.10;0.30;;;22.20;75.50;;;;;;4940707;28;20126;-72
2022/07/29 00:15:43;;;;;;;1.02;0.30;;;22.20;77.20;;;;;;4945331;28;20102;-73
2022/07/29 00:18:10;;;;;;;2.50;0.30;;;22.50;75.40;;;;;;4944612;29;20122;-75
2022/07/29 00:20:37;;;;;;;1.60;0.50;;;22.50;74.80;;;;;;4944957;28;20034;-74
2022/07/29 00:23:05;;;;;;;1.65;0.38;;;22.60;75.10;;;;;;4950932;28;20035;-76
2022/07/29 00:25:32;;;;;;;1.48;0.22;;;22.70;73.50;;;;;;4951480;28;20054;-74
2022/07/29 00:28:00;;;;;;;2.47;0.30;;;22.80;74.20;;;;;;4943861;28;20133;-75
2022/07/29 00:30:27;;;;;;;1.25;0.20;;;22.70;73.40;;;;;;4943442;28;20036;-81
2022/07/29 00:32:54;;;;;;;4.53;1.10;;;22.90;72.90;;;;;;4944986;28;20082;-76
2022/07/29 00:38:07;;;;;;;2.17;0.22;;;23.30;74.00;;;;;;4941796;28;20070;-83
2022/07/29 00:40:35;;;;;;;2.72;0.80;;;23.30;72.10;;;;;;4948311;28;20090;-77
2022/07/29 00:43:02;;;;;;;0.93;0.28;;;23.10;72.90;;;;;;4951395;28;20042;-78
2022/07/29 00:45:30;;;;;;;3.35;0.90;;;23.30;72.40;;;;;;4945608;28;20086;-78
2022/07/29 00:47:57;;;;;;;3.78;0.88;;;23.40;72.00;;;;;;4948134;29;20427;-80
2022/07/29 00:50:25;;;;;;;1.45;0.30;;;23.60;73.70;;;;;;4950386;28;20782;-83
2022/07/29 00:52:53;;;;;;;1.95;0.30;;;24.10;71.90;;;;;;4933809;29;20054;-78
2022/07/29 00:55:21;;;;;;;1.80;0.40;;;24.30;71.20;;;;;;4941264;28;20030;-78
2022/07/29 00:57:49;;;;;;;0.95;0.20;;;24.60;72.00;;;;;;4937886;28;20115;-78
2022/07/29 01:00:21;;;;;;;2.83;0.32;;;24.60;71.20;;;;;;4944063;28;20031;-85
2022/07/29 01:02:49;;;;;;;1.85;0.60;;;24.70;69.90;;;;;;4940970;28;20043;-84
2022/07/29 01:05:19;;;;;;;1.02;0.60;;;25.00;70.30;;;;;;4944000;28;20031;-78
2022/07/29 01:07:49;;;;;;;2.13;0.35;;;25.20;69.10;;;;;;4941981;28;20113;-81
2022/07/29 01:10:18;;;;;;;1.05;0.35;;;25.00;68.40;;;;;;4939982;29;20038;-82
2022/07/29 01:12:49;;;;;;;0.50;0.20;;;24.70;69.50;;;;;;4941130;28;20057;-80
2022/07/29 01:15:16;;;;;;;1.75;0.25;;;24.60;68.60;;;;;;4939646;28;20518;-80
2022/07/29 01:17:52;;;;;;;2.13;0.20;;;24.50;69.50;;;;;;4941496;28;20467;-76
2022/07/29 01:20:24;;;;;;;;;;;24.60;69.10;;;;;;4941484;28;20031;-76
2022/07/29 01:23:06;;;;;;;0.70;0.40;;;24.90;68.40;;;;;;4939840;28;19915;-77
2022/07/29 01:26:10;;;;;;;1.13;0.17;;;25.00;68.90;;;;;;4934881;28;20101;-77
2022/07/29 01:28:55;;;;;;;0.40;0.20;;;25.20;69.40;;;;;;4948324;28;20047;-80
2022/07/29 01:31:45;;;;;;;2.72;0.50;;;25.50;68.40;;;;;;4942946;29;20434;-78
2022/07/29 01:34:22;;;;;;;1.83;0.38;;;25.40;67.90;;;;;;4948726;28;20490;-76
2022/07/29 01:37:20;;;;;;;1.58;0.20;;;25.70;68.00;;;;;;4950532;29;20091;-77
2022/07/29 01:39:51;;;;;;;0.70;0.30;;;25.60;67.80;;;;;;4937964;29;20523;-75
2022/07/29 01:42:26;;;;;;;1.63;0.75;;;25.70;68.10;;;;;;4949453;28;20039;-80
2022/07/29 01:45:17;;;;;;;2.25;0.32;;;25.40;66.60;;;;;;4951893;29;20304;-78
2022/07/29 01:47:51;;;;;;;1.55;0.47;;;25.00;67.70;;;;;;4949573;28;20048;-75
2022/07/29 01:50:21;;;;;;;0.90;0.20;;;25.00;68.90;;;;;;4936980;29;20031;-76
2022/07/29 01:52:58;;;;;;;2.67;0.20;;;25.20;67.40;;;;;;4949409;28;20039;-76
2022/07/29 01:55:32;;;;;;;1.70;0.73;;;25.10;68.10;;;;;;4936511;28;20043;-77
2022/07/29 01:58:01;;;;;;;2.17;0.25;;;25.70;68.20;;;;;;4938166;28;20059;-78
2022/07/29 02:00:31;;;;;;;3.92;0.85;;;25.70;67.50;;;;;;4949684;29;20031;-77
2022/07/29 02:03:02;;;;;;;1.08;0.35;;;25.60;67.50;;;;;;4940445;28;20071;-78
2022/07/29 02:05:31;;;;;;;1.58;0.40;;;25.70;68.10;;;;;;4947439;28;20115;-79
2022/07/29 02:08:02;;;;;;;0.65;0.20;;;25.30;68.10;;;;;;4949899;28;20066;-80
2022/07/29 02:10:32;;;;;;;1.13;0.32;;;25.70;68.20;;;;;;4953469;29;20406;-75
2022/07/29 02:13:02;;;;;;;0.75;0.20;;;25.90;68.30;;;;;;4941308;28;20038;-77
2022/07/29 02:15:34;;;;;;;0.22;0.10;;;25.90;68.40;;;;;;4944724;28;20036;-79
2022/07/29 02:18:18;;;;;;;0.95;0.47;;;26.00;67.60;;;;;;4947195;28;20099;-79
2022/07/29 02:20:50;;;;;;;2.88;0.80;;;26.00;68.00;;;;;;4939499;29;20041;-77
2022/07/29 02:23:24;;;;;;;0.80;0.28;;;25.20;67.00;;;;;;4945783;28;20063;-82
2022/07/29 02:25:57;;;;;;;1.52;0.25;;;25.00;68.50;;;;;;4946028;28;20735;-79
2022/07/29 02:28:28;;;;;;;1.13;0.68;;;25.10;69.20;;;;;;4949024;28;20406;-81
2022/07/29 02:31:02;;;;;;;2.38;0.30;;;25.10;67.60;;;;;;4952170;29;20035;-79
2022/07/29 02:33:32;;;;;;;1.23;0.40;;;24.80;68.50;;;;;;4945783;28;20058;-80
2022/07/29 02:36:02;;;;;;;1.92;0.30;;;24.60;68.00;;;;;;4946960;28;20470;-77
2022/07/29 02:41:20;;;;;;;0.55;0.10;;;24.30;67.90;;;;;;4936758;28;20155;-80
2022/07/29 02:43:55;;;;;;;1.98;0.82;;;24.20;69.20;;;;;;4942760;28;20050;-76
2022/07/29 02:46:34;;;;;;;1.15;0.25;;;24.30;68.50;;;;;;4939684;29;20490;-75
2022/07/29 02:49:24;;;;;;;1.15;0.15;;;24.40;70.50;;;;;;4935298;28;20055;-75
2022/07/29 02:52:22;;;;;;;1.10;0.25;;;24.40;68.00;;;;;;4932394;29;20050;-74
2022/07/29 02:55:24;;;;;;;0.60;0.30;;;24.30;67.90;;;;;;4937998;28;20035;-74
2022/07/29 02:57:56;;;;;;;0.70;0.10;;;24.20;69.00;;;;;;4937168;28;20027;-74
2022/07/29 03:00:29;;;;;;;0.90;0.30;;;24.00;68.40;;;;;;4943861;29;20020;-74
2022/07/29 03:02:59;;;;;;;1.25;0.38;;;24.10;67.80;;;;;;4940472;28;20035;-77
2022/07/29 03:05:28;;;;;;;1.35;0.40;;;24.20;67.50;;;;;;4923652;29;20431;-76
2022/07/29 03:08:06;;;;;;;2.05;0.47;;;24.20;69.70;;;;;;4941679;28;20121;-77
2022/07/29 03:10:35;;;;;;;0.85;0.20;;;23.90;66.90;;;;;;4939780;29;20107;-74
2022/07/29 03:13:03;;;;;;;1.83;0.40;;;23.90;68.20;;;;;;4935481;28;20486;-80
2022/07/29 03:15:31;;;;;;;1.63;0.77;;;23.70;67.10;;;;;;4940196;29;20035;-74
2022/07/29 03:18:00;;;;;;;0.93;0.40;;;23.70;69.50;;;;;;4940453;28;21314;-77
2022/07/29 03:20:27;;;;;;;1.02;0.30;;;23.50;67.80;;;;;;4936274;29;20675;-79
2022/07/29 03:22:55;;;;;;;1.10;0.22;;;23.20;67.70;;;;;;4940756;28;20390;-78
2022/07/29 03:25:22;;;;;;;0.80;0.20;;;23.00;67.60;;;;;;4943574;28;20100;-83
2022/07/29 03:27:51;;;;;;;1.40;0.50;;;22.90;69.10;;;;;;4935367;28;20031;-78
2022/07/29 03:30:18;;;;;;;1.17;0.30;;;23.00;68.30;;;;;;4937341;28;20110;-81
2022/07/29 03:32:46;;;;;;;0.50;0.20;;;23.00;68.20;;;;;;4940170;29;20559;-81
2022/07/29 03:35:13;;;;;;;2.58;0.20;;;22.60;67.10;;;;;;4940012;29;20110;-83
2022/07/29 03:37:41;;;;;;;0.95;0.38;;;22.30;68.90;;;;;;4942364;28;20023;-78
2022/07/29 03:40:10;;;;;;;1.65;0.55;;;21.90;68.40;;;;;;4938308;28;20110;-75
2022/07/29 03:42:43;;;;;;;1.13;0.68;;;21.50;68.40;;;;;;4928973;28;20023;-78
2022/07/29 03:45:15;;;;;;;0.93;0.10;;;21.30;68.00;;;;;;4937677;28;20040;-75
2022/07/29 03:47:49;;;;;;;2.85;0.20;;;21.10;69.20;;;;;;4941070;28;20394;-77
2022/07/29 03:50:19;;;;;;;1.27;0.10;;;20.90;68.10;;;;;;4940453;29;20482;-81
2022/07/29 03:52:47;;;;;;;2.20;0.30;;;20.60;69.50;;;;;;4941838;28;20513;-82
2022/07/29 03:55:16;;;;;;;1.67;0.40;;;20.30;68.30;;;;;;4941268;28;20094;-80
2022/07/29 03:57:46;;;;;;;2.13;0.20;;;20.00;68.60;;;;;;4938673;28;20039;-83
2022/07/29 04:00:15;;;;;;;0.43;0.30;;;19.70;69.80;;;;;;4938945;28;20370;-78
2022/07/29 04:02:47;;;;;;;1.17;0.85;;;19.40;68.20;;;;;;4936573;28;20082;-78
2022/07/29 04:05:16;;;;;;;1.63;0.10;;;19.30;66.90;;;;;;4940374;29;20035;-79
2022/07/29 04:07:48;;;;;;;1.65;0.20;;;19.10;68.40;;;;;;4935299;28;20065;-79
2022/07/29 04:10:19;;;;;;;0.50;0.22;;;19.00;66.50;;;;;;4938347;28;20727;-75
2022/07/29 04:12:46;;;;;;;1.88;0.50;;;18.70;67.70;;;;;;4934932;28;20565;-79
2022/07/29 04:15:14;;;;;;;6.72;0.65;;;18.60;68.10;;;;;;4938328;28;20640;-79
2022/07/29 04:17:41;;;;;;;2.13;0.25;;;18.50;69.00;;;;;;4937800;29;20042;-78
2022/07/29 04:20:12;;;;;;;0.20;0.20;;;18.40;67.60;;;;;;4919883;29;20031;-79
2022/07/29 04:22:40;;;;;;;1.08;0.20;;;18.20;68.50;;;;;;4942507;29;20424;-81
2022/07/29 04:25:08;;;;;;;1.60;0.20;;;18.10;68.40;;;;;;4937808;28;20027;-79
2022/07/29 04:27:59;;;;;;;1.65;0.20;;;18.00;69.40;;;;;;4939743;29;20394;-79
2022/07/29 04:30:22;;;;;;;3.35;0.30;;;17.90;70.30;;;;;;4938265;28;20098;-78
2022/07/29 04:32:50;;;;;;;0.50;0.00;;;17.80;68.90;;;;;;4938638;28;20035;-77
2022/07/29 04:35:17;;;;;;;0.47;0.20;;;17.80;69.40;;;;;;4940784;28;20100;-77
2022/07/29 04:37:44;;;;;;;0.95;0.20;;;17.70;68.80;;;;;;4936473;28;20035;-79
2022/07/29 04:40:12;;;;;;;0.77;0.10;;;17.70;68.90;;;;;;4940910;29;20031;-79
2022/07/29 04:42:40;;;;;;;0.90;0.32;;;17.60;68.80;;;;;;4941002;28;20030;-80
2022/07/29 04:45:08;;;;;;;0.40;0.10;;;17.60;69.60;;;;;;4941255;29;20063;-79
2022/07/29 04:47:35;;;;;;;0.50;0.10;;;17.50;69.80;;;;;;4939892;28;20502;-80
2022/07/29 04:50:05;;;;;;;1.33;0.28;;;17.40;69.10;;;;;;4935489;28;20125;-83
2022/07/29 04:52:32;;;;;;;1.10;0.20;;;17.30;69.10;;;;;;4939046;28;20046;-80
2022/07/29 04:54:59;;;;;;;2.42;0.38;;;17.20;68.80;;;;;;4937543;28;20151;-80
2022/07/29 04:57:27;;;;;;;1.17;0.22;;;17.10;68.40;;;;;;4941035;29;20035;-77
2022/07/29 04:59:54;;;;;;;2.38;0.20;;;17.10;69.40;;;;;;4939130;28;20027;-77
2022/07/29 05:02:21;;;;;;;1.90;0.20;;;17.00;69.40;;;;;;4933506;28;20048;-76
2022/07/29 05:04:49;;;;;;;0.85;0.20;;;17.00;69.50;;;;;;4940683;28;20046;-78
2022/07/29 05:07:16;;;;;;;1.02;0.68;;;16.90;69.70;;;;;;4940133;28;20130;-80
2022/07/29 05:09:44;;;;;;;1.42;0.30;;;16.90;69.40;;;;;;4940875;28;20046;-80
2022/07/29 05:12:11;;;;;;;1.05;0.25;;;16.90;69.20;;;;;;4938330;28;20039;-82
2022/07/29 05:14:39;;;;;;;2.58;0.30;;;16.90;70.10;;;;;;4943779;28;20027;-79
2022/07/29 05:17:06;;;;;;;0.88;0.13;;;16.80;69.70;;;;;;4946095;28;20163;-77
2022/07/29 05:19:34;;;;;;;0.30;0.20;;;16.80;69.80;;;;;;4942175;28;20164;-77
2022/07/29 05:22:01;;;;;;;1.17;0.20;;;16.80;71.10;;;;;;4919805;29;20031;-75
2022/07/29 05:24:28;;;;;;;0.10;0.10;;;16.80;70.40;;;;;;4939286;28;20035;-77
2022/07/29 05:26:56;;;;;;;0.38;0.10;;;16.80;70.80;;;;;;4942844;29;20355;-81
2022/07/29 05:29:23;;;;;;;3.35;0.35;;;16.80;71.50;;;;;;4942418;28;20158;-76
2022/07/29 05:31:52;;;;;;;0.65;0.20;;;16.80;71.60;;;;;;4945040;29;20035;-80
2022/07/29 05:34:20;;;;;;;1.10;0.20;;;16.80;71.30;;;;;;4933021;28;20043;-78
2022/07/29 05:36:47;;;;;;;1.67;0.40;;;16.80;71.20;;;;;;4943437;28;20169;-82
2022/07/29 05:39:15;;;;;;;0.45;0.10;;;16.80;71.40;;;;;;4943769;28;20042;-79
2022/07/29 05:41:43;;;;;;;0.85;0.10;;;16.80;70.20;;;;;;4953740;28;20446;-78
2022/07/29 05:44:11;;;;;;;0.22;0.10;;;16.80;72.10;;;;;;4953125;28;20023;-80
2022/07/29 05:46:38;;;;;;;1.98;0.40;;;16.90;71.30;;;;;;4944308;28;20118;-77
2022/07/29 05:49:07;;;;;;;0.88;0.60;;;17.10;71.10;;;;;;4940155;28;20043;-77
2022/07/29 05:51:35;;;;;;;3.22;0.30;;;17.20;71.60;;;;;;4942230;29;20475;-78
2022/07/29 05:54:02;;;;;;;0.60;0.38;;;17.30;72.60;;;;;;4943929;28;20063;-77
2022/07/29 05:56:30;;;;;;;1.35;0.28;;;17.20;73.10;;;;;;4938335;29;20023;-77
2022/07/29 05:58:58;;;;;;;3.13;0.57;;;17.20;73.40;;;;;;4949228;28;20033;-77
2022/07/29 06:01:25;;;;;;;4.38;0.30;;;17.20;73.60;;;;;;4948263;28;20036;-76
2022/07/29 06:03:53;;;;;;;1.50;0.50;;;17.10;73.70;;;;;;4942334;28;20139;-77
2022/07/29 06:06:21;;;;;;;1.55;0.30;;;17.00;73.80;;;;;;4947869;28;20062;-75
2022/07/29 06:08:48;;;;;;;2.60;0.55;;;17.00;74.00;;;;;;4949818;28;20114;-77
2022/07/29 06:11:15;;;;;;;1.20;0.65;;;16.90;74.50;;;;;;4951079;28;20122;-75
2022/07/29 06:13:43;;;;;;;2.42;0.40;;;16.90;74.70;;;;;;4947279;29;20077;-78
2022/07/29 06:16:10;;;;;;;1.08;0.35;;;16.80;74.80;;;;;;4948901;28;20501;-78
2022/07/29 06:18:38;;;;;;;1.35;0.30;;;16.80;75.30;;;;;;4943349;28;20055;-78
2022/07/29 06:21:12;;;;;;;1.00;0.68;;;16.70;75.20;;;;;;4945172;28;20031;-76
2022/07/29 06:23:40;;;;;;;1.52;0.35;;;16.70;75.20;;;;;;4935011;29;20039;-79
2022/07/29 06:26:08;;;;;;;4.47;0.60;;;16.60;75.20;;;;;;4944112;28;20287;-75
2022/07/29 06:28:36;;;;;;;0.50;0.30;;;16.60;75.30;;;;;;4938439;29;20508;-76
2022/07/29 06:31:03;;;;;;;1.27;0.50;;;16.60;75.50;;;;;;4948761;28;20026;-78
2022/07/29 06:33:30;;;;;;;1.15;0.40;;;16.50;75.30;;;;;;4943923;28;20058;-77
2022/07/29 06:35:58;;;;;;;0.95;0.55;;;16.40;75.60;;;;;;4938436;29;20051;-76
2022/07/29 06:38:25;;;;;;;2.95;0.38;;;16.30;75.90;;;;;;4941911;28;20035;-82
2022/07/29 06:41:02;;;;;;;1.00;0.40;;;16.20;76.40;;;;;;4942096;28;20034;-79
2022/07/29 06:43:31;;;;;;;1.65;0.40;;;16.10;76.80;;;;;;4941318;28;20126;-76
2022/07/29 06:46:01;;;;;;;1.42;0.30;;;16.00;77.60;;;;;;4953161;28;20031;-78
2022/07/29 06:48:28;;;;;;;2.60;0.20;;;15.80;78.00;;;;;;4951151;29;20043;-77
2022/07/29 06:50:56;;;;;;;13.35;1.08;;;15.60;78.70;;;;;;4950684;28;20122;-77
2022/07/29 06:53:23;;;;;;;0.95;0.20;;;15.40;79.20;;;;;;4950861;28;20589;-78
2022/07/29 06:55:51;;;;;;;0.57;0.38;;;15.20;79.40;;;;;;4951690;28;20038;-78
2022/07/29 06:58:20;;;;;;;3.47;0.40;;;15.00;79.90;;;;;;4950807;29;20475;-78
2022/07/29 07:00:50;;;;;;;0.45;0.43;;;14.90;80.40;;;;;;4951525;28;20082;-77
2022/07/29 07:03:18;;;;;;;1.80;0.40;;;14.70;80.50;;;;;;4949070;29;20028;-78
2022/07/29 07:05:46;;;;;;;1.58;0.35;;;14.60;80.90;;;;;;4947582;28;20038;-77
2022/07/29 07:08:15;;;;;;;4.25;0.80;;;14.50;81.70;;;;;;4942766;28;20035;-76
2022/07/29 07:10:43;;;;;;;1.98;0.68;;;14.40;82.20;;;;;;4946788;28;20038;-78
2022/07/29 07:13:12;;;;;;;2.40;0.82;;;14.30;82.60;;;;;;4949682;28;20060;-78
2022/07/29 07:15:39;;;;;;;5.57;1.15;;;14.20;83.30;;;;;;4947150;28;20497;-77
2022/07/29 07:18:07;;;;;;;3.88;1.00;;;14.10;83.80;;;;;;4950967;28;20387;-77
2022/07/29 07:20:36;;;;;;;1.80;0.63;;;14.00;84.20;;;;;;4951825;29;20041;-74
2022/07/29 07:23:04;;;;;;;3.90;1.00;;;14.00;84.60;;;;;;4947701;28;20023;-75
2022/07/29 07:25:32;;;;;;;3.97;0.95;;;13.80;85.20;;;;;;4938731;28;20038;-76
2022/07/29 07:27:59;;;;;;;3.30;2.28;;;13.70;85.80;;;;;;4944082;29;20035;-76
2022/07/29 07:30:27;;;;;;;2.55;0.98;;;13.60;86.10;;;;;;4932972;29;20478;-78
2022/07/29 07:32:55;;;;;;;4.65;0.95;;;13.50;86.90;;;;;;4943309;28;20039;-78
2022/07/29 07:35:22;;;;;;;4.55;1.10;;;13.40;87.30;;;;;;4951295;29;20027;-77
2022/07/29 07:37:50;;;;;;;5.40;1.73;;;13.30;87.60;;;;;;4946593;28;20035;-83
2022/07/29 07:40:17;;;;;;;1.45;1.15;;;13.20;88.30;;;;;;4944278;29;20463;-81
2022/07/29 07:42:51;;;;;;;3.13;1.10;;;13.10;88.60;;;;;;4943010;29;20145;-80
2022/07/29 07:45:18;;;;;;;2.20;0.75;;;13.00;89.10;;;;;;4942769;29;20038;-79
2022/07/29 07:47:46;;;;;;;1.73;0.55;;;12.80;89.30;;;;;;4942248;29;20050;-78
2022/07/29 07:50:13;;;;;;;2.95;1.60;;;12.80;89.60;;;;;;4942449;29;20054;-77
2022/07/29 07:53:07;;;;;;;2.55;0.80;;;12.70;90.00;;;;;;4944749;29;20091;-80
2022/07/29 07:55:39;;;;;;;1.70;0.50;;;12.60;90.10;;;;;;4937641;29;20384;-79
2022/07/29 07:58:06;;;;;;;6.28;1.60;;;12.50;90.50;;;;;;4942275;29;20475;-78
2022/07/29 08:00:34;;;;;;;6.28;1.80;;;12.50;90.60;;;;;;4948107;28;22880;-78
2022/07/29 08:03:01;;;;;;;6.78;2.75;;;12.40;90.60;;;;;;4946017;29;20032;-77
2022/07/29 08:05:29;;;;;;;5.18;2.00;;;12.30;90.80;;;;;;4945972;29;20023;-79
2022/07/29 08:07:56;;;;;;;3.63;1.52;;;12.20;91.20;;;;;;4938933;28;23025;-75
2022/07/29 08:13:11;;;;;;;3.03;1.20;;;12.10;91.50;;;;;;4939264;29;20045;-79
2022/07/29 08:15:44;;;;;;;6.10;1.70;;;12.00;91.80;;;;;;4936235;29;20023;-77
2022/07/29 08:18:13;;;;;;;2.63;1.13;;;12.00;92.10;;;;;;4939920;28;20115;-78
2022/07/29 08:20:40;;;;;;;4.38;0.80;;;12.00;92.20;;;;;;4948068;28;20555;-80
2022/07/29 08:23:09;;;;;;;2.80;0.90;;;11.90;92.40;;;;;;4941291;28;20035;-79
2022/07/29 08:25:39;;;;;;;4.25;0.93;;;11.80;92.30;;;;;;4946445;29;20031;-81
2022/07/29 08:28:07;;;;;;;4.38;1.08;;;11.80;92.60;;;;;;4944620;29;20036;-82
2022/07/29 08:30:35;;;;;;;2.65;0.73;;;11.80;92.80;;;;;;4948646;29;20054;-81
2022/07/29 08:33:03;;;;;;;2.40;0.93;;;11.70;93.50;;;;;;4946561;29;20038;-80
2022/07/29 08:35:30;;;;;;;5.07;1.40;;;11.60;93.40;;;;;;4938263;29;20391;-82
2022/07/29 08:37:58;;;;;;;2.70;1.40;;;11.50;93.30;;;;;;4948143;28;20154;-81
2022/07/29 08:40:25;;;;;;;6.07;1.65;;;11.50;93.40;;;;;;4950285;29;20031;-81
2022/07/29 08:42:53;;;;;;;2.92;1.27;;;11.40;93.60;;;;;;4948352;28;20046;-81
2022/07/29 08:45:23;;;;;;;2.28;1.27;;;11.30;93.80;;;;;;4947346;29;20479;-79
2022/07/29 08:47:50;;;;;;;6.00;1.05;;;11.30;93.90;;;;;;4947196;29;20043;-80
2022/07/29 08:50:18;;;;;;;3.38;1.40;;;11.20;93.90;;;;;;4950565;29;20456;-79
2022/07/29 08:52:46;;;;;;;3.55;1.45;;;11.20;94.00;;;;;;4953672;29;20043;-81
2022/07/29 08:55:17;;;;;;;2.65;1.20;;;11.10;94.10;;;;;;4953944;28;20047;-78
2022/07/29 08:57:44;;;;;;;6.40;1.75;;;11.10;94.40;;;;;;4954340;29;20381;-79
2022/07/29 09:00:12;;;;;;;3.60;1.85;;;11.00;94.30;;;;;;4953878;29;20035;-81
2022/07/29 09:02:45;;;;;;;3.25;1.50;;;11.00;94.20;;;;;;4952424;29;20073;-79
2022/07/29 09:05:13;;;;;;;3.35;1.75;;;11.00;94.20;;;;;;4947887;29;20029;-81
2022/07/29 09:07:42;;;;;;;3.38;1.75;;;10.90;94.30;;;;;;4945402;29;20087;-80
2022/07/29 09:10:10;;;;;;;2.60;1.42;;;11.00;94.30;;;;;;4954608;29;20031;-77
2022/07/29 09:12:39;;;;;;;2.15;1.25;;;10.90;94.40;;;;;;4952724;29;20047;-79
2022/07/29 09:15:07;;;;;;;5.00;1.80;;;10.80;94.50;;;;;;4952570;29;20034;-79
2022/07/29 09:17:49;;;;;;;2.47;0.80;;;10.80;94.50;;;;;;4954115;28;20031;-79
2022/07/29 09:20:22;;;;;;;6.55;1.40;;;10.80;94.50;;;;;;4936355;29;20028;-78
2022/07/29 09:22:52;;;;;;;2.35;0.75;;;10.70;94.60;;;;;;4949507;28;20039;-82
2022/07/29 09:25:40;;;;;;;5.10;1.45;;;10.70;94.70;;;;;;4953170;29;20390;-78
2022/07/29 09:28:19;;;;;;;4.82;1.15;;;10.60;94.90;;;;;;4952438;28;20042;-81
2022/07/29 09:30:59;;;;;;;1.95;1.05;;;10.60;94.90;;;;;;4953721;29;20466;-77
2022/07/29 09:33:39;;;;;;;2.05;0.80;;;10.60;95.10;;;;;;4941055;28;20137;-78
2022/07/29 09:36:08;;;;;;;3.88;1.10;;;10.50;95.10;;;;;;4953378;29;20039;-79
2022/07/29 09:38:38;;;;;;;5.07;1.25;;;10.40;95.30;;;;;;4952220;29;20448;-78
2022/07/29 09:41:08;;;;;;;5.47;1.65;;;10.40;95.40;;;;;;4950092;29;20118;-78
2022/07/29 09:43:36;;;;;;;3.55;2.42;;;10.40;95.50;;;;;;4951375;29;20085;-80
2022/07/29 09:46:14;;;;;;;5.53;3.85;;;10.30;95.60;;;;;;4948978;28;20035;-77
2022/07/29 09:48:41;;;;;;;6.10;3.92;;;10.30;95.70;;;;;;4953208;29;20130;-80
2022/07/29 09:51:22;;;;;;;6.50;3.72;;;10.20;95.90;;;;;;4954374;29;20031;-78
2022/07/29 09:53:50;;;;;;;9.68;5.07;;;10.20;96.20;;;;;;4944654;28;20094;-79
2022/07/29 09:56:17;;;;;;;9.40;4.97;;;10.10;96.40;;;;;;4948408;29;20482;-81
2022/07/29 09:58:44;;;;;;;8.60;4.88;;;10.10;96.60;;;;;;4951116;28;20035;-78
2022/07/29 10:01:14;;;;;;;8.13;4.45;;;10.10;96.70;;;;;;4952868;28;20027;-79
2022/07/29 10:03:54;;;;;;;6.97;4.05;;;10.00;96.80;;;;;;4946747;28;20054;-78
2022/07/29 10:06:21;;;;;;;5.03;1.83;;;9.90;96.90;;;;;;4947094;28;20517;-79
2022/07/29 10:08:49;;;;;;;3.00;1.60;;;9.90;97.10;;;;;;4945115;28;20193;-80
2022/07/29 10:11:18;;;;;;;5.00;1.75;;;9.80;97.20;;;;;;4953609;28;20027;-79
2022/07/29 10:13:48;;;;;;;3.83;1.85;;;9.80;97.40;;;;;;4949389;28;20038;-79
2022/07/29 10:16:17;;;;;;;5.45;2.08;;;9.80;97.60;;;;;;4946349;29;20439;-81
2022/07/29 10:18:46;;;;;;;2.25;1.45;;;9.80;97.60;;;;;;4949695;29;20031;-78
2022/07/29 10:21:14;;;;;;;4.25;1.27;;;9.70;97.60;;;;;;4950151;28;20114;-80
2022/07/29 10:23:42;;;;;;;3.78;1.90;;;9.70;97.60;;;;;;4953071;28;20451;-80
2022/07/29 10:26:11;;;;;;;3.22;1.77;;;9.70;97.70;;;;;;4945028;29;20019;-79
2022/07/29 10:28:39;;;;;;;6.05;2.00;;;9.70;97.90;;;;;;4947856;29;20047;-79
2022/07/29 10:31:11;;;;;;;6.00;2.55;;;9.70;97.90;;;;;;4952356;28;20066;-80
2022/07/29 10:33:55;;;;;;;5.60;2.67;;;9.60;98.00;;;;;;4938309;29;20502;-80
2022/07/29 10:36:56;;;;;;;8.65;2.78;;;9.60;98.30;;;;;;4942899;29;20091;-79
2022/07/29 10:39:33;;;;;;;5.53;2.17;;;9.50;98.30;;;;;;4937216;29;20039;-78
2022/07/29 10:42:15;;;;;;;5.85;2.60;;;9.50;98.50;;;;;;4952467;28;20090;-80
2022/07/29 10:44:43;;;;;;;5.07;1.80;;;9.40;98.60;;;;;;4945786;29;20031;-79
2022/07/29 10:47:26;;;;;;;3.75;2.00;;;9.40;98.70;;;;;;4944818;29;20039;-79
2022/07/29 10:50:02;;;;;;;10.18;2.30;;;9.40;98.90;;;;;;4947700;28;20398;-78
2022/07/29 10:52:48;;;;;;;2.22;1.83;;;9.30;99.00;;;;;;4950463;29;20042;-81
2022/07/29 10:55:38;;;;;;;2.43;1.63;;;9.20;99.20;;;;;;4939193;29;20038;-79
2022/07/29 10:58:15;;;;;;;4.65;2.28;;;9.20;99.40;;;;;;4938411;29;20035;-78
2022/07/29 11:00:43;;;;;;;2.75;1.70;;;9.10;99.80;;;;;;4951238;29;20048;-78
2022/07/29 11:03:30;;;;;;;7.43;2.60;;;9.10;99.90;;;;;;4951819;29;20398;-78
2022/07/29 11:05:58;;;;;;;7.43;2.60;;;9.10;99.90;;;;;;4947394;28;20086;-79
2022/07/29 11:08:25;;;;;;;6.70;2.88;;;9.10;99.90;;;;;;4952620;29;20043;-79
2022/07/29 11:11:13;;;;;;;5.55;2.60;;;9.10;99.90;;;;;;4952234;28;20034;-83
2022/07/29 11:13:44;;;;;;;4.28;2.20;;;9.00;99.90;;;;;;4948383;29;20031;-83
2022/07/29 11:16:11;;;;;;;5.75;1.80;;;9.00;99.90;;;;;;4944717;29;20038;-83
2022/07/29 11:19:13;;;;;;;3.40;1.83;;;9.00;99.90;;;;;;4949925;28;20035;-83
2022/07/29 11:21:49;;;;;;;2.53;1.17;;;8.90;99.90;;;;;;4952040;29;20042;-81
2022/07/29 11:24:27;;;;;;;1.45;1.00;;;8.80;99.90;;;;;;4950058;29;20027;-83
2022/07/29 11:27:14;;;;;;;2.92;1.10;;;8.80;99.90;;;;;;4951290;29;20047;-80
2022/07/29 11:29:54;;;;;;;2.33;0.70;;;8.70;99.90;;;;;;4937734;28;20509;-79
2022/07/29 11:32:24;;;;;;;3.40;0.95;;;8.70;99.90;;;;;;4941660;29;20039;-83
2022/07/29 11:35:23;;;;;;;1.60;0.85;;;8.60;99.90;;;;;;4933759;29;20514;-82
2022/07/29 11:38:24;;;;;;;1.23;0.75;;;8.60;99.90;;;;;;4935613;29;20549;-81
2022/07/29 11:41:12;;;;;;;4.35;1.23;;;8.60;99.90;;;;;;4937186;29;20055;-82
2022/07/29 11:43:48;;;;;;;2.42;1.10;;;8.60;99.90;;;;;;4945461;28;20119;-84
2022/07/29 11:46:37;;;;;;;2.53;0.68;;;8.60;99.90;;;;;;4937051;29;20038;-79
2022/07/29 11:49:05;;;;;;;3.22;1.00;;;8.50;99.90;;;;;;4944446;29;20062;-82
2022/07/29 11:51:32;;;;;;;2.33;1.40;;;8.50;99.90;;;;;;4951077;29;20035;-84
2022/07/29 11:54:00;;;;;;;3.10;0.98;;;8.50;99.90;;;;;;4950578;29;20328;-83
2022/07/29 11:56:32;;;;;;;2.10;0.77;;;8.40;99.90;;;;;;4950997;28;20035;-83
2022/07/29 11:59:18;;;;;;;2.63;0.75;;;8.50;99.90;;;;;;4951476;28;20031;-82
2022/07/29 12:02:12;;;;;;;5.22;0.80;;;8.40;99.90;;;;;;4945938;29;20047;-84
2022/07/29 12:04:58;;;;;;;1.60;0.70;;;8.40;99.90;;;;;;4949025;29;20042;-83
2022/07/29 12:07:32;;;;;;;3.25;1.00;;;8.40;99.90;;;;;;4949509;29;20126;-83
2022/07/29 12:10:01;;;;;;;3.65;0.75;;;8.30;99.90;;;;;;4951114;29;20035;-82
2022/07/29 12:12:28;;;;;;;2.65;1.00;;;8.30;99.90;;;;;;4948913;29;20093;-81
2022/07/29 12:14:56;;;;;;;1.85;0.82;;;8.30;99.90;;;;;;4941468;29;20110;-81
2022/07/29 12:17:28;;;;;;;1.73;1.08;;;8.30;99.90;;;;;;4946964;28;20035;-81
2022/07/29 12:19:57;;;;;;;5.22;1.35;;;8.20;99.90;;;;;;4954125;28;20034;-81
2022/07/29 12:22:29;;;;;;;2.10;1.27;;;8.20;99.90;;;;;;4950619;29;20027;-82
2022/07/29 12:25:01;;;;;;;6.90;1.75;;;8.10;99.90;;;;;;4951149;28;20043;-80
2022/07/29 12:27:28;;;;;;;1.88;1.08;;;8.10;99.90;;;;;;4952678;29;20043;-79
2022/07/29 12:30:04;;;;;;;5.72;1.60;;;8.00;99.90;;;;;;4954007;28;20050;-83
2022/07/29 12:32:37;;;;;;;1.60;1.00;;;8.00;99.90;;;;;;4952631;29;20043;-79
2022/07/29 12:35:15;;;;;;;2.60;1.30;;;8.00;99.90;;;;;;4938639;29;20121;-80
2022/07/29 12:37:44;;;;;;;3.25;1.58;;;7.90;99.90;;;;;;4953749;29;20042;-82
2022/07/29 12:40:16;;;;;;;3.47;1.30;;;7.90;99.90;;;;;;4955010;29;20544;-80
2022/07/29 12:43:07;;;;;;;1.50;1.13;;;7.90;99.90;;;;;;4952869;29;20046;-79
2022/07/29 12:45:35;;;;;;;1.30;0.70;;;7.80;99.90;;;;;;4932228;29;20082;-81
2022/07/29 12:48:03;;;;;;;1.70;0.90;;;7.80;99.90;;;;;;4942388;29;20047;-83
2022/07/29 12:50:32;;;;;;;3.17;1.17;;;7.80;99.90;;;;;;4949471;28;20393;-79
2022/07/29 12:53:13;;;;;;;3.55;0.70;;;7.70;99.90;;;;;;4949149;29;20122;-82
2022/07/29 12:55:48;;;;;;;10.43;1.40;;;7.70;99.90;;;;;;4955231;29;20474;-79
2022/07/29 12:58:28;;;;;;;3.03;0.82;;;7.70;99.90;;;;;;4954209;28;20031;-82
2022/07/29 13:01:12;;;;;;;2.80;1.20;;;7.70;99.90;;;;;;4954868;29;20059;-81
2022/07/29 13:04:00;;;;;;;3.58;1.52;;;7.70;99.90;;;;;;4941594;29;20055;-82
2022/07/29 13:06:41;;;;;;;4.65;1.48;;;7.70;99.90;;;;;;4948849;28;20035;-82
2022/07/29 13:09:19;;;;;;;2.92;1.30;;;7.60;99.90;;;;;;4945539;28;20039;-81
2022/07/29 13:11:49;;;;;;;2.95;1.88;;;7.50;99.90;;;;;;4949677;29;20023;-81
2022/07/29 13:14:38;;;;;;;7.47;2.67;;;7.40;99.90;;;;;;4946851;29;20050;-82
2022/07/29 13:17:07;;;;;;;5.53;3.72;;;7.30;99.90;;;;;;4950903;29;20043;-82
2022/07/29 13:19:45;;;;;;;3.40;2.00;;;7.20;99.90;;;;;;4939747;29;20038;-81
2022/07/29 13:22:15;;;;;;;2.63;1.42;;;7.20;99.90;;;;;;4949737;29;20042;-84